createdAt,value
2022-09-10T00:00:54.321Z,100.00
2022-09-10T00:03:56.624Z,100.00
2022-09-10T00:06:58.457Z,100.00
2022-09-10T00:10:00.014Z,100.00
2022-09-10T00:13:01.571Z,100.00
2022-09-10T00:16:06.358Z,100.00
2022-09-10T00:19:10.261Z,100.00
2022-09-10T00:22:13.259Z,100.00
2022-09-10T00:25:15.270Z,100.00
2022-09-10T00:28:16.996Z,100.00
2022-09-10T00:31:20.479Z,100.00
2022-09-10T00:34:22.081Z,100.00
2022-09-10T00:37:23.625Z,100.00
2022-09-10T00:40:25.512Z,100.00
2022-09-10T00:43:27.122Z,100.00
2022-09-10T00:46:47.566Z,100.00
2022-09-10T00:49:55.555Z,100.00
2022-09-10T00:53:02.582Z,100.00
2022-09-10T00:56:05.246Z,100.00
2022-09-10T00:59:09.926Z,100.00
2022-09-10T01:02:12.189Z,100.00
2022-09-10T01:05:15.130Z,100.00
2022-09-10T01:08:18.493Z,100.00
2022-09-10T01:11:56.201Z,100.00
2022-09-10T01:15:03.988Z,100.00
2022-09-10T01:18:13.185Z,100.00
2022-09-10T01:21:20.778Z,100.00
2022-09-10T01:24:59.176Z,100.00
2022-09-10T01:28:08.849Z,100.00
2022-09-10T01:31:24.495Z,100.00
2022-09-10T01:34:29.728Z,100.00
2022-09-10T01:37:35.003Z,100.00
2022-09-10T01:40:37.300Z,100.00
2022-09-10T01:43:43.281Z,100.00
2022-09-10T01:46:54.734Z,100.00
2022-09-10T01:50:14.936Z,100.00
2022-09-10T01:53:43.043Z,100.00
2022-09-10T01:57:19.445Z,100.00
2022-09-10T02:00:22.278Z,100.00
2022-09-10T02:03:26.222Z,100.00
2022-09-10T02:06:30.619Z,100.00
2022-09-10T02:09:34.040Z,100.00
2022-09-10T02:12:36.900Z,100.00
2022-09-10T02:15:57.478Z,100.00
2022-09-10T02:19:02.374Z,100.00
2022-09-10T02:22:05.791Z,100.00
2022-09-10T02:25:09.857Z,100.00
2022-09-10T02:28:13.236Z,100.00
2022-09-10T02:31:15.146Z,100.00
2022-09-10T02:34:16.924Z,100.00
2022-09-10T02:37:21.596Z,100.00
2022-09-10T02:40:23.186Z,100.00
2022-09-10T02:43:26.348Z,100.00
2022-09-10T02:46:31.257Z,100.00
2022-09-10T02:49:34.627Z,100.00
2022-09-10T02:52:37.473Z,100.00
2022-09-10T02:55:41.299Z,100.00
2022-09-10T02:58:43.147Z,100.00
2022-09-10T03:01:45.061Z,100.00
2022-09-10T03:04:46.735Z,100.00
2022-09-10T03:07:48.606Z,100.00
2022-09-10T03:10:50.889Z,100.00
2022-09-10T03:13:52.546Z,100.00
2022-09-10T03:16:55.018Z,100.00
2022-09-10T03:19:59.282Z,100.00
2022-09-10T03:23:00.885Z,100.00
2022-09-10T03:26:04.391Z,100.00
2022-09-10T03:29:06.655Z,100.00
2022-09-10T03:32:13.204Z,100.00
2022-09-10T03:35:15.783Z,100.00
2022-09-10T03:38:17.451Z,100.00
2022-09-10T03:41:19.914Z,100.00
2022-09-10T03:44:22.561Z,100.00
2022-09-10T03:47:25.130Z,100.00
2022-09-10T03:50:27.827Z,100.00
2022-09-10T03:53:29.501Z,100.00
2022-09-10T03:56:32.792Z,100.00
2022-09-10T03:59:40.146Z,100.00
2022-09-10T04:02:46.097Z,100.00
2022-09-10T04:05:48.720Z,100.00
2022-09-10T04:08:52.722Z,100.00
2022-09-10T04:11:56.173Z,100.00
2022-09-10T04:14:58.697Z,100.00
2022-09-10T04:18:01.159Z,100.00
2022-09-10T04:21:03.181Z,100.00
2022-09-10T04:24:05.132Z,100.00
2022-09-10T04:27:06.714Z,100.00
2022-09-10T04:30:10.148Z,100.00
2022-09-10T04:33:14.216Z,100.00
2022-09-10T04:36:17.197Z,100.00
2022-09-10T04:39:19.647Z,100.00
2022-09-10T04:42:23.965Z,100.00
2022-09-10T04:45:27.426Z,100.00
2022-09-10T04:48:29.235Z,100.00
2022-09-10T04:51:31.064Z,100.00
2022-09-10T04:54:37.486Z,100.00
2022-09-10T04:57:39.404Z,100.00
2022-09-10T05:00:41.184Z,100.00
2022-09-10T05:03:43.594Z,100.00
2022-09-10T05:06:50.143Z,100.00
2022-09-10T05:09:51.878Z,100.00
2022-09-10T05:12:54.380Z,100.00
2022-09-10T05:15:59.391Z,100.00
2022-09-10T05:19:01.266Z,100.00
2022-09-10T05:22:06.842Z,100.00
2022-09-10T05:25:09.982Z,100.00
2022-09-10T05:28:12.887Z,100.00
2022-09-10T05:31:16.596Z,100.00
2022-09-10T05:34:19.158Z,100.00
2022-09-10T05:37:20.778Z,100.00
2022-09-10T05:40:22.921Z,100.00
2022-09-10T05:43:27.432Z,100.00
2022-09-10T05:46:30.959Z,100.00
2022-09-10T05:49:37.211Z,100.00
2022-09-10T05:52:40.188Z,100.00
2022-09-10T05:55:43.945Z,100.00
2022-09-10T05:58:45.600Z,100.00
2022-09-10T06:01:51.446Z,100.00
2022-09-10T06:04:54.944Z,100.00
2022-09-10T06:07:57.752Z,100.00
2022-09-10T06:11:02.545Z,100.00
2022-09-10T06:14:09.159Z,100.00
2022-09-10T06:17:11.190Z,100.00
2022-09-10T06:20:15.685Z,99.31
2022-09-10T06:23:19.217Z,98.43
2022-09-10T06:26:22.036Z,98.38
2022-09-10T06:29:27.636Z,98.47
2022-09-10T06:32:29.482Z,98.13
2022-09-10T06:35:32.406Z,96.66
2022-09-10T06:38:35.288Z,95.24
2022-09-10T06:41:36.994Z,94.75
2022-09-10T06:44:48.470Z,93.06
2022-09-10T06:51:33.965Z,90.54
2022-09-10T06:54:37.727Z,90.87
2022-09-10T06:57:53.808Z,91.83
2022-09-10T07:00:57.204Z,91.78
2022-09-10T07:04:01.032Z,89.08
2022-09-10T07:07:05.951Z,88.94
2022-09-10T07:10:08.407Z,89.40
2022-09-10T07:13:10.993Z,88.42
2022-09-10T07:16:18.479Z,88.03
2022-09-10T07:19:20.893Z,88.08
2022-09-10T07:22:23.046Z,87.39
2022-09-10T07:25:26.326Z,86.45
2022-09-10T07:28:39.181Z,86.45
2022-09-10T07:31:42.163Z,87.17
2022-09-10T07:34:52.265Z,87.68
2022-09-10T07:37:55.865Z,88.06
2022-09-10T07:41:01.099Z,88.63
2022-09-10T07:44:03.001Z,89.13
2022-09-10T07:47:12.050Z,88.88
2022-09-10T07:50:14.854Z,89.41
2022-09-10T07:53:17.867Z,88.99
2022-09-10T07:56:23.098Z,89.29
2022-09-10T07:59:25.244Z,89.23
2022-09-10T08:02:32.499Z,89.51
2022-09-10T08:05:39.546Z,89.22
2022-09-10T08:08:42.926Z,89.77
2022-09-10T08:11:46.837Z,89.47
2022-09-10T08:14:52.288Z,88.96
2022-09-10T08:17:55.602Z,87.74
2022-09-10T08:20:57.462Z,87.61
2022-09-10T08:24:02.733Z,87.31
2022-09-10T08:27:06.705Z,87.19
2022-09-10T08:30:09.059Z,87.15
2022-09-10T08:33:12.323Z,88.13
2022-09-10T08:36:16.913Z,87.32
2022-09-10T08:39:18.568Z,87.21
2022-09-10T08:42:26.879Z,86.19
2022-09-10T08:45:32.814Z,85.16
2022-09-10T08:48:39.777Z,85.57
2022-09-10T08:51:48.594Z,85.59
2022-09-10T08:54:56.491Z,85.77
2022-09-10T08:57:59.555Z,85.52
2022-09-10T09:01:05.125Z,85.60
2022-09-10T09:04:18.113Z,85.70
2022-09-10T09:07:21.769Z,85.29
2022-09-10T09:10:45.084Z,84.83
2022-09-10T09:13:52.083Z,85.21
2022-09-10T09:17:06.239Z,84.83
2022-09-10T09:20:42.935Z,84.34
2022-09-10T09:24:13.083Z,83.29
2022-09-10T09:27:22.752Z,82.37
2022-09-10T09:30:33.455Z,81.12
2022-09-10T09:33:38.837Z,80.55
2022-09-10T09:36:46.867Z,80.69
2022-09-10T09:40:14.572Z,80.21
2022-09-10T09:43:27.941Z,78.83
2022-09-10T09:46:29.635Z,78.42
2022-09-10T09:49:35.511Z,77.46
2022-09-10T09:52:38.565Z,79.51
2022-09-10T09:55:43.990Z,78.60
2022-09-10T09:58:50.239Z,76.42
2022-09-10T10:01:52.933Z,76.79
2022-09-10T10:05:03.648Z,76.66
2022-09-10T10:08:05.814Z,76.91
2022-09-10T10:11:09.367Z,76.12
2022-09-10T10:14:31.154Z,75.04
2022-09-10T10:17:41.117Z,75.39
2022-09-10T10:20:42.771Z,74.84
2022-09-10T10:23:44.651Z,75.48
2022-09-10T10:26:48.651Z,75.46
2022-09-10T10:30:17.434Z,75.99
2022-09-10T10:33:31.370Z,76.01
2022-09-10T10:37:00.077Z,76.72
2022-09-10T10:40:30.323Z,76.64
2022-09-10T10:43:44.328Z,76.61
2022-09-10T10:46:53.978Z,76.38
2022-09-10T10:50:17.052Z,76.24
2022-09-10T10:53:28.948Z,77.14
2022-09-10T10:56:50.711Z,75.19
2022-09-10T10:59:57.218Z,74.51
2022-09-10T11:03:10.703Z,70.54
2022-09-10T11:06:23.431Z,71.02
2022-09-10T11:09:31.264Z,70.60
2022-09-10T11:12:44.127Z,70.65
2022-09-10T11:15:59.379Z,69.71
2022-09-10T11:19:09.025Z,71.51
2022-09-10T11:22:26.035Z,72.36
2022-09-10T11:25:34.163Z,74.37
2022-09-10T11:28:56.689Z,75.28
2022-09-10T11:32:06.481Z,75.77
2022-09-10T11:35:22.108Z,76.25
2022-09-10T11:38:41.125Z,76.99
2022-09-10T11:41:46.324Z,77.26
2022-09-10T11:44:56.016Z,76.06
2022-09-10T11:48:18.600Z,75.87
2022-09-10T11:51:30.539Z,74.73
2022-09-10T11:54:35.531Z,74.25
2022-09-10T11:58:16.492Z,74.19
2022-09-10T12:01:49.458Z,73.55
2022-09-10T12:04:56.807Z,74.43
2022-09-10T12:08:23.004Z,73.91
2022-09-10T12:11:44.279Z,74.66
2022-09-10T12:14:46.137Z,75.10
2022-09-10T12:17:56.417Z,75.95
2022-09-10T12:21:02.631Z,76.01
2022-09-10T12:24:23.348Z,75.31
2022-09-10T12:28:00.636Z,75.01
2022-09-10T12:31:03.309Z,73.80
2022-09-10T12:34:17.226Z,72.61
2022-09-10T12:37:24.431Z,70.52
2022-09-10T12:40:26.099Z,70.84
2022-09-10T12:43:40.220Z,71.28
2022-09-10T12:46:45.302Z,70.65
2022-09-10T12:49:54.831Z,70.50
2022-09-10T12:53:25.103Z,70.51
2022-09-10T12:57:03.193Z,70.28
2022-09-10T13:00:13.992Z,69.83
2022-09-10T13:03:19.882Z,69.02
2022-09-10T13:06:35.865Z,68.23
2022-09-10T13:09:39.650Z,68.17
2022-09-10T13:12:44.195Z,68.58
2022-09-10T13:15:52.485Z,68.99
2022-09-10T13:19:14.070Z,70.42
2022-09-10T13:22:52.566Z,70.26
2022-09-10T13:26:33.647Z,70.95
2022-09-10T13:29:38.496Z,71.94
2022-09-10T13:32:47.812Z,72.44
2022-09-10T13:36:05.620Z,72.46
2022-09-10T13:39:50.755Z,74.44
2022-09-10T13:43:21.607Z,76.19
2022-09-10T13:46:46.686Z,79.26
2022-09-10T13:50:00.557Z,81.97
2022-09-10T13:53:08.230Z,82.98
2022-09-10T13:56:21.283Z,81.72
2022-09-10T13:59:30.806Z,80.97
2022-09-10T14:02:50.709Z,80.79
2022-09-10T14:05:57.328Z,81.65
2022-09-10T14:09:05.039Z,82.52
2022-09-10T14:12:08.404Z,82.37
2022-09-10T14:15:17.011Z,83.05
2022-09-10T14:18:20.129Z,81.15
2022-09-10T14:21:27.932Z,80.04
2022-09-10T14:24:33.625Z,79.68
2022-09-10T14:27:39.015Z,79.25
2022-09-10T14:30:40.621Z,78.41
2022-09-10T14:33:42.220Z,78.71
2022-09-10T14:36:43.850Z,79.95
2022-09-10T14:39:45.520Z,80.92
2022-09-10T14:42:49.447Z,81.29
2022-09-10T14:45:51.632Z,81.70
2022-09-10T14:49:00.090Z,81.67
2022-09-10T14:52:05.587Z,80.83
2022-09-10T14:55:07.439Z,81.61
2022-09-10T14:58:11.535Z,82.01
2022-09-10T15:01:13.305Z,81.78
2022-09-10T15:04:23.551Z,81.04
2022-09-10T15:07:25.185Z,79.23
2022-09-10T15:10:26.808Z,78.80
2022-09-10T15:13:31.195Z,79.04
2022-09-10T15:16:36.184Z,79.86
2022-09-10T15:19:43.110Z,80.02
2022-09-10T15:22:47.436Z,81.02
2022-09-10T15:25:50.933Z,80.97
2022-09-10T15:28:52.823Z,80.84
2022-09-10T15:31:59.364Z,80.82
2022-09-10T15:35:01.231Z,81.35
2022-09-10T15:38:02.917Z,82.25
2022-09-10T15:41:13.162Z,83.17
2022-09-10T15:44:14.994Z,83.61
2022-09-10T15:47:16.581Z,84.61
2022-09-10T15:50:18.228Z,85.17
2022-09-10T15:53:20.678Z,83.79
2022-09-10T15:56:27.009Z,82.41
2022-09-10T15:59:28.634Z,81.48
2022-09-10T16:02:30.249Z,80.97
2022-09-10T16:05:35.407Z,81.61
2022-09-10T16:08:37.057Z,82.24
2022-09-10T16:11:40.957Z,83.17
2022-09-10T16:14:44.387Z,83.43
2022-09-10T16:17:46.039Z,84.23
2022-09-10T16:20:47.643Z,85.08
2022-09-10T16:23:51.688Z,86.04
2022-09-10T16:26:53.319Z,86.88
2022-09-10T16:29:54.939Z,88.18
2022-09-10T16:32:56.893Z,89.40
2022-09-10T16:36:04.230Z,89.73
2022-09-10T16:39:12.203Z,90.34
2022-09-10T16:42:13.978Z,91.06
2022-09-10T16:45:15.657Z,90.94
2022-09-10T16:48:17.354Z,91.63
2022-09-10T16:51:20.838Z,92.35
2022-09-10T16:54:22.957Z,93.06
2022-09-10T16:57:24.600Z,92.79
2022-09-10T17:00:27.005Z,92.91
2022-09-10T17:03:29.955Z,92.93
2022-09-10T17:06:32.017Z,93.41
2022-09-10T17:09:36.063Z,93.66
2022-09-10T17:12:40.029Z,94.34
2022-09-10T17:15:43.158Z,94.24
2022-09-10T17:18:45.058Z,94.45
2022-09-10T17:21:51.142Z,94.86
2022-09-10T17:24:53.924Z,95.51
2022-09-10T17:27:55.694Z,95.37
2022-09-10T17:30:58.115Z,95.19
2022-09-10T17:33:59.748Z,95.02
2022-09-10T17:37:01.719Z,95.43
2022-09-10T17:40:08.689Z,95.60
2022-09-10T17:43:13.257Z,95.58
2022-09-10T17:46:22.695Z,95.88
2022-09-10T17:49:24.618Z,95.98
2022-09-10T17:52:26.670Z,96.24
2022-09-10T17:55:34.543Z,96.51
2022-09-10T17:58:39.130Z,96.90
2022-09-10T18:01:43.309Z,96.96
2022-09-10T18:04:49.071Z,96.95
2022-09-10T18:07:50.639Z,97.07
2022-09-10T18:11:02.156Z,97.48
2022-09-10T18:14:04.252Z,97.70
2022-09-10T18:17:05.926Z,97.96
2022-09-10T18:20:07.935Z,98.07
2022-09-10T18:23:09.789Z,98.00
2022-09-10T18:26:14.360Z,98.25
2022-09-10T18:29:20.784Z,98.52
2022-09-10T18:32:23.244Z,98.67
2022-09-10T18:35:27.578Z,98.75
2022-09-10T18:38:29.372Z,98.56
2022-09-10T18:41:33.286Z,98.50
2022-09-10T18:44:39.062Z,98.37
2022-09-10T18:47:44.845Z,98.36
2022-09-10T18:50:47.327Z,98.32
2022-09-10T18:53:53.120Z,98.46
2022-09-10T18:56:55.862Z,98.76
2022-09-10T18:59:57.413Z,98.74
2022-09-10T19:02:59.078Z,98.57
2022-09-10T19:06:05.304Z,98.15
2022-09-10T19:09:10.806Z,98.09
2022-09-10T19:12:18.579Z,98.00
2022-09-10T19:15:22.424Z,98.22
2022-09-10T19:18:24.323Z,97.91
2022-09-10T19:21:27.952Z,97.95
2022-09-10T19:24:54.009Z,97.88
2022-09-10T19:27:55.992Z,97.96
2022-09-10T19:31:03.127Z,98.01
2022-09-10T19:34:09.329Z,98.13
2022-09-10T19:37:11.269Z,98.17
2022-09-10T19:40:13.117Z,98.55
2022-09-10T19:43:15.671Z,98.20
2022-09-10T19:46:19.425Z,98.22
2022-09-10T19:49:23.388Z,98.18
2022-09-10T19:52:25.594Z,97.91
2022-09-10T19:55:27.186Z,98.12
2022-09-10T19:58:28.801Z,98.02
2022-09-10T20:01:33.086Z,98.25
2022-09-10T20:04:36.949Z,98.20
2022-09-10T20:07:39.585Z,98.08
2022-09-10T20:10:49.603Z,98.10
2022-09-10T20:13:57.017Z,98.29
2022-09-10T20:16:59.280Z,98.90
2022-09-10T20:20:03.853Z,99.08
2022-09-10T20:23:05.463Z,99.34
2022-09-10T20:26:15.886Z,98.94
2022-09-10T20:29:19.305Z,98.95
2022-09-10T20:32:21.439Z,99.03
2022-09-10T20:35:23.084Z,98.58
2022-09-10T20:38:25.782Z,98.15
2022-09-10T20:41:31.444Z,98.23
2022-09-10T20:44:33.146Z,98.23
2022-09-10T20:47:42.862Z,98.30
2022-09-10T20:51:00.651Z,98.23
2022-09-10T20:54:04.478Z,98.69
2022-09-10T20:57:06.138Z,99.04
2022-09-10T21:00:08.634Z,99.21
2022-09-10T21:03:10.206Z,99.46
2022-09-10T21:06:14.092Z,99.57
2022-09-10T21:09:15.802Z,99.77
2022-09-10T21:12:17.735Z,100.00
2022-09-10T21:15:19.503Z,99.96
2022-09-10T21:18:21.154Z,100.00
2022-09-10T21:21:28.153Z,99.93
2022-09-10T21:24:29.786Z,100.00
2022-09-10T21:27:32.105Z,100.00
2022-09-10T21:30:33.669Z,100.00
2022-09-10T21:33:36.631Z,100.00
2022-09-10T21:36:40.110Z,100.00
2022-09-10T21:39:41.789Z,100.00
2022-09-10T21:42:44.256Z,100.00
2022-09-10T21:45:46.347Z,100.00
2022-09-10T21:48:48.036Z,100.00
2022-09-10T21:51:50.197Z,100.00
2022-09-10T21:54:51.798Z,100.00
2022-09-10T21:57:53.437Z,100.00
2022-09-10T22:00:59.995Z,100.00
2022-09-10T22:04:02.001Z,100.00
2022-09-10T22:07:04.667Z,100.00
2022-09-10T22:10:06.841Z,100.00
2022-09-10T22:13:09.212Z,100.00
2022-09-10T22:16:13.888Z,100.00
2022-09-10T22:19:19.392Z,100.00
2022-09-10T22:22:21.046Z,100.00
2022-09-10T22:25:25.412Z,100.00
2022-09-10T22:28:27.099Z,100.00
2022-09-10T22:31:33.618Z,100.00
2022-09-10T22:34:36.566Z,100.00
2022-09-10T22:37:38.188Z,100.00
2022-09-10T22:40:39.853Z,100.00
2022-09-10T22:43:42.771Z,100.00
2022-09-10T22:46:44.520Z,100.00
2022-09-10T22:49:47.548Z,100.00
2022-09-10T22:52:49.183Z,100.00
2022-09-10T22:55:50.885Z,100.00
2022-09-10T22:58:54.113Z,100.00
2022-09-10T23:01:55.837Z,100.00
2022-09-10T23:04:57.488Z,100.00
2022-09-10T23:07:59.107Z,100.00
2022-09-10T23:11:19.451Z,100.00
2022-09-10T23:14:22.076Z,100.00
2022-09-10T23:17:23.751Z,100.00
2022-09-10T23:20:27.182Z,100.00
2022-09-10T23:23:28.758Z,100.00
2022-09-10T23:26:30.458Z,100.00
2022-09-10T23:29:32.037Z,100.00
2022-09-10T23:32:33.739Z,100.00
2022-09-10T23:35:35.390Z,100.00
2022-09-10T23:38:37.407Z,100.00
2022-09-10T23:41:39.606Z,100.00
2022-09-10T23:44:41.235Z,100.00
2022-09-10T23:47:42.938Z,100.00
2022-09-10T23:50:44.903Z,100.00
2022-09-10T23:53:48.021Z,100.00
2022-09-10T23:56:49.654Z,100.00
2022-09-10T23:59:51.306Z,100.00
